Time;durP1;ratioP1;P1;durP2;ratioP2;P2;SDS_P1;SDS_P2;PMS_P1;PMS_P2;Temp;Humidity;BMP_temperature;BMP_pressure;BME280_temperature;BME280_humidity;BME280_pressure;Samples;Min_cycle;Max_cycle;Signal;HPM_P1;HPM_P2
2022/06/29 00:02:08;;;;;;;1.55;1.38;;;;;;;16.59;93.69;101564.22;6180288;28;20058;-78
2022/06/29 00:05:10;;;;;;;1.58;1.13;;;;;;;16.58;93.63;101567.81;6179341;28;20061;-77
2022/06/29 00:08:11;;;;;;;1.88;1.40;;;;;;;16.55;95.64;101573.34;6180234;28;20131;-78
2022/06/29 00:11:13;;;;;;;4.53;1.20;;;;;;;16.46;95.33;101557.06;6179324;28;20046;-78
2022/06/29 00:14:15;;;;;;;1.58;1.30;;;;;;;16.44;95.07;101558.97;6180880;28;20059;-78
2022/06/29 00:17:17;;;;;;;1.42;1.33;;;;;;;16.41;97.17;101558.31;6180659;28;20054;-77
2022/06/29 00:20:19;;;;;;;1.30;1.20;;;;;;;16.38;96.39;101563.81;6179598;28;20054;-78
2022/06/29 00:23:20;;;;;;;1.10;1.00;;;;;;;16.30;97.16;101568.75;6179604;28;20458;-78
2022/06/29 00:26:21;;;;;;;3.05;2.25;;;;;;;16.25;98.08;101555.78;6179137;28;20061;-78
2022/06/29 00:29:24;;;;;;;1.67;1.30;;;;;;;16.23;97.09;101547.09;6179577;28;20110;-77
2022/06/29 00:32:25;;;;;;;4.65;1.30;;;;;;;16.23;96.00;101557.69;6179481;28;20046;-78
2022/06/29 00:35:27;;;;;;;1.88;1.35;;;;;;;16.19;95.05;101550.88;6178757;28;20050;-78
2022/06/29 00:38:29;;;;;;;1.77;1.52;;;;;;;16.14;94.35;101556.47;6179415;28;20055;-77
2022/06/29 00:41:30;;;;;;;1.73;1.25;;;;;;;16.13;93.11;101549.47;6178123;28;20517;-78
2022/06/29 00:44:33;;;;;;;1.52;1.30;;;;;;;16.08;92.85;101556.00;6178512;28;20066;-78
2022/06/29 00:47:34;;;;;;;2.10;1.65;;;;;;;16.03;92.76;101551.00;6178609;28;20046;-78
2022/06/29 00:50:38;;;;;;;3.72;1.27;;;;;;;16.01;92.04;101558.22;6178762;28;20053;-78
2022/06/29 00:53:42;;;;;;;1.17;1.08;;;;;;;15.96;92.67;101550.53;6178555;28;20062;-78
2022/06/29 00:56:43;;;;;;;2.42;1.58;;;;;;;15.95;93.23;101550.66;6178506;28;20057;-78
2022/06/29 00:59:48;;;;;;;1.38;1.27;;;;;;;15.93;94.89;101540.13;6178746;28;20146;-77
2022/06/29 01:02:49;;;;;;;3.58;1.27;;;;;;;15.89;95.44;101543.91;6178649;28;20046;-77
2022/06/29 01:05:51;;;;;;;1.40;1.27;;;;;;;15.86;94.50;101540.63;6184720;28;20054;-78
2022/06/29 01:08:52;;;;;;;1.25;1.05;;;;;;;15.83;95.63;101548.75;6168647;28;20419;-78
2022/06/29 01:11:53;;;;;;;2.15;1.35;;;;;;;15.83;96.14;101548.75;6157515;28;20057;-78
2022/06/29 01:14:56;;;;;;;2.38;1.60;;;;;;;15.81;95.87;101548.88;6176164;28;20055;-78
2022/06/29 01:17:57;;;;;;;3.13;1.38;;;;;;;15.85;93.49;101553.03;6176719;28;20066;-77
2022/06/29 01:21:04;;;;;;;1.77;1.00;;;;;;;15.84;92.87;101548.66;6177476;28;20526;-78
2022/06/29 01:24:07;;;;;;;1.45;1.08;;;;;;;15.84;92.69;101546.00;6178013;28;20514;-77
2022/06/29 01:27:08;;;;;;;1.48;1.38;;;;;;;15.84;93.47;101526.59;6177775;28;20055;-78
2022/06/29 01:30:11;;;;;;;3.17;1.40;;;;;;;15.82;93.24;101531.16;6168855;28;20047;-77
2022/06/29 01:33:12;;;;;;;1.60;1.40;;;;;;;15.78;94.18;101538.44;6166504;28;20414;-77
2022/06/29 01:36:15;;;;;;;3.67;1.70;;;;;;;15.71;93.95;101535.34;6201670;28;20110;-78
2022/06/29 01:39:18;;;;;;;1.23;1.02;;;;;;;15.72;93.53;101534.38;6202273;28;20064;-78
2022/06/29 01:42:20;;;;;;;3.20;1.40;;;;;;;15.73;92.97;101529.94;6200775;28;20073;-78
2022/06/29 01:45:21;;;;;;;2.17;1.30;;;;;;;15.66;92.45;101526.81;6201706;28;20055;-78
2022/06/29 01:48:22;;;;;;;1.13;1.02;;;;;;;15.62;93.58;101535.00;6201706;28;20513;-77
2022/06/29 01:51:24;;;;;;;1.85;1.55;;;;;;;15.59;93.70;101520.16;6201186;28;20047;-78
2022/06/29 01:54:26;;;;;;;1.33;1.10;;;;;;;15.60;92.92;101527.16;6200825;28;20050;-78
2022/06/29 01:57:28;;;;;;;1.00;0.98;;;;;;;15.58;92.88;101514.94;6202142;28;20061;-77
2022/06/29 02:00:29;;;;;;;2.50;1.50;;;;;;;15.55;93.60;101523.94;6200954;28;20057;-77
2022/06/29 02:03:30;;;;;;;1.17;1.00;;;;;;;15.57;92.96;101523.84;6199596;28;20426;-78
2022/06/29 02:06:32;;;;;;;2.22;1.20;;;;;;;15.58;91.52;101520.25;6200919;28;20061;-78
2022/06/29 02:09:34;;;;;;;2.13;1.35;;;;;;;15.57;92.22;101530.00;6201540;28;20049;-77
2022/06/29 02:12:36;;;;;;;1.83;1.17;;;;;;;15.56;92.52;101519.50;6200745;28;20054;-78
2022/06/29 02:15:37;;;;;;;4.93;1.23;;;;;;;15.47;90.75;101510.31;6200929;28;20057;-78
2022/06/29 02:18:38;;;;;;;2.05;1.30;;;;;;;15.46;91.64;101508.63;6201048;28;20057;-78
2022/06/29 02:21:40;;;;;;;1.38;1.27;;;;;;;15.45;91.83;101502.47;6201021;28;20047;-78
2022/06/29 02:24:43;;;;;;;1.55;1.33;;;;;;;15.40;92.94;101506.34;6200624;28;20046;-78
2022/06/29 02:27:45;;;;;;;1.73;1.58;;;;;;;15.38;92.39;101510.88;6202161;28;20050;-77
2022/06/29 02:37:25;;;;;;;1.58;1.35;;;;;;;15.25;94.29;101496.69;6181168;28;20058;-78
2022/06/29 02:40:27;;;;;;;1.70;1.33;;;;;;;15.22;93.75;101495.09;6176888;28;20491;-77
2022/06/29 02:43:29;;;;;;;1.95;1.83;;;;;;;15.19;94.52;101487.31;6181657;28;20062;-78
2022/06/29 02:46:33;;;;;;;1.70;1.45;;;;;;;15.11;95.84;101484.28;6181235;28;20494;-79
2022/06/29 02:49:34;;;;;;;1.92;1.48;;;;;;;15.07;96.79;101483.59;6181133;28;20047;-78
2022/06/29 02:52:35;;;;;;;3.55;1.40;;;;;;;15.02;96.91;101480.41;6181539;28;20521;-78
2022/06/29 02:55:38;;;;;;;2.20;1.50;;;;;;;15.03;96.16;101484.72;6180902;28;20061;-79
2022/06/29 02:58:39;;;;;;;2.05;1.60;;;;;;;15.02;95.73;101474.25;6181950;28;20506;-79
2022/06/29 03:01:41;;;;;;;2.72;1.70;;;;;;;14.98;96.21;101478.88;6179844;28;20059;-78
2022/06/29 03:04:42;;;;;;;2.85;1.80;;;;;;;14.96;96.36;101478.13;6180924;28;20452;-79
2022/06/29 03:07:44;;;;;;;2.78;1.60;;;;;;;14.95;97.29;101479.91;6178492;28;20062;-78
2022/06/29 03:10:46;;;;;;;1.33;1.23;;;;;;;14.98;96.67;101479.72;6155503;29;20055;-78
2022/06/29 03:13:48;;;;;;;1.27;1.17;;;;;;;14.94;97.21;101483.53;6155561;29;20058;-78
2022/06/29 03:16:49;;;;;;;1.75;1.42;;;;;;;14.94;98.08;101477.34;6168387;28;20058;-78
2022/06/29 03:19:51;;;;;;;2.22;1.50;;;;;;;14.88;97.60;101489.16;6180434;28;20043;-78
2022/06/29 03:22:52;;;;;;;3.60;1.70;;;;;;;14.88;98.71;101480.38;6181057;28;20518;-78
2022/06/29 03:25:55;;;;;;;1.88;1.30;;;;;;;14.85;98.75;101478.78;6179840;28;20055;-78
2022/06/29 03:28:57;;;;;;;1.95;1.40;;;;;;;14.86;98.58;101480.47;6180323;28;20054;-78
2022/06/29 03:31:59;;;;;;;1.90;1.50;;;;;;;14.86;98.83;101482.28;6168572;28;20062;-78
2022/06/29 03:35:00;;;;;;;3.30;1.77;;;;;;;14.83;99.92;101483.28;6204415;28;20193;-78
2022/06/29 03:38:01;;;;;;;2.58;1.67;;;;;;;14.79;98.94;101473.81;6204209;28;20061;-79
2022/06/29 03:41:04;;;;;;;1.73;1.63;;;;;;;14.77;99.93;101473.09;6202860;28;20418;-78
2022/06/29 03:44:06;;;;;;;2.38;2.05;;;;;;;14.78;100.00;101480.06;6203686;28;20133;-78
2022/06/29 03:47:08;;;;;;;3.08;1.70;;;;;;;14.81;100.00;101479.91;6203772;28;20050;-79
2022/06/29 03:50:10;;;;;;;2.17;1.85;;;;;;;14.83;100.00;101475.34;6203757;28;20100;-78
2022/06/29 03:53:11;;;;;;;3.80;2.13;;;;;;;14.84;100.00;101476.19;6204057;28;20061;-78
2022/06/29 03:56:14;;;;;;;1.80;1.55;;;;;;;14.87;100.00;101473.38;6203494;28;20422;-78
2022/06/29 03:59:15;;;;;;;1.52;1.42;;;;;;;14.94;100.00;101474.69;6203649;28;20057;-79
2022/06/29 04:02:17;;;;;;;1.50;1.40;;;;;;;14.94;100.00;101472.94;6198634;28;20077;-79
2022/06/29 04:05:18;;;;;;;1.73;1.63;;;;;;;14.96;100.00;101476.31;6178699;28;20583;-78
2022/06/29 04:08:19;;;;;;;2.17;1.50;;;;;;;15.02;100.00;101476.91;6180097;28;20050;-78
2022/06/29 04:14:41;;;;;;;1.35;1.25;;;;;;;15.06;100.00;101467.84;6178446;28;20062;-78
2022/06/29 04:21:08;;;;;;;4.50;2.67;;;;;;;15.10;99.80;101480.78;6294311;27;20379;-72
2022/06/29 04:24:10;;;;;;;2.97;2.38;;;;;;;15.18;100.00;101469.75;6297647;28;20075;-72
2022/06/29 04:27:12;;;;;;;2.63;1.70;;;;;;;15.23;99.05;101470.31;6298194;28;20051;-73
2022/06/29 04:30:13;;;;;;;1.85;1.50;;;;;;;15.24;99.09;101469.34;6296154;28;20045;-72
2022/06/29 04:33:15;;;;;;;2.20;1.77;;;;;;;15.30;99.72;101466.31;6307482;28;20515;-72
2022/06/29 04:36:18;;;;;;;2.28;1.70;;;;;;;15.39;100.00;101473.69;6317529;28;20049;-72
2022/06/29 04:39:19;;;;;;;1.65;1.45;;;;;;;15.45;99.17;101461.91;6317397;28;20051;-72
2022/06/29 04:42:20;;;;;;;2.03;1.33;;;;;;;15.46;99.32;101464.44;6317460;28;20052;-72
2022/06/29 04:48:41;;;;;;;1.92;1.40;;;;;;;15.53;99.07;101451.63;6317475;28;20048;-72
2022/06/29 04:51:44;;;;;;;1.60;1.15;;;;;;;15.58;99.27;101452.22;6316981;28;20056;-72
2022/06/29 04:54:45;;;;;;;1.70;1.42;;;;;;;15.65;98.77;101445.63;6316963;28;20044;-73
2022/06/29 04:57:46;;;;;;;2.25;1.77;;;;;;;15.69;98.14;101452.41;6313425;28;20051;-72
2022/06/29 05:00:48;;;;;;;1.48;1.27;;;;;;;15.78;97.88;101452.78;6316658;28;20041;-72
2022/06/29 05:03:49;;;;;;;3.78;1.55;;;;;;;15.81;97.36;101444.66;6315633;28;20059;-72
2022/06/29 05:06:52;;;;;;;1.30;1.13;;;;;;;15.85;97.79;101440.81;6317234;28;20438;-73
2022/06/29 05:09:53;;;;;;;2.33;1.48;;;;;;;15.84;98.53;101439.97;6314310;28;20510;-73
2022/06/29 05:12:55;;;;;;;1.27;1.05;;;;;;;15.84;98.22;101434.69;6316839;28;20048;-72
2022/06/29 05:15:56;;;;;;;6.43;1.40;;;;;;;15.84;97.64;101439.13;6316435;28;20071;-73
2022/06/29 05:18:57;;;;;;;1.67;1.15;;;;;;;15.87;97.82;101433.66;6316177;28;20041;-73
2022/06/29 05:22:00;;;;;;;1.60;1.48;;;;;;;15.95;98.18;101437.50;6316391;28;20500;-73
2022/06/29 05:25:02;;;;;;;1.48;1.30;;;;;;;16.05;98.90;101435.09;6316157;28;20056;-73
2022/06/29 05:28:04;;;;;;;1.52;1.25;;;;;;;16.18;99.14;101428.03;6316678;28;20052;-73
2022/06/29 05:31:05;;;;;;;1.80;1.48;;;;;;;16.30;98.28;101436.13;6306029;28;20052;-73
2022/06/29 05:34:07;;;;;;;2.67;1.40;;;;;;;16.41;97.82;101437.13;6280420;28;20047;-73
2022/06/29 05:37:09;;;;;;;1.40;1.30;;;;;;;16.47;96.07;101425.25;6299473;28;20512;-73
2022/06/29 05:40:11;;;;;;;1.58;1.45;;;;;;;16.55;95.19;101436.19;6299215;28;20044;-73
2022/06/29 05:43:12;;;;;;;1.60;1.20;;;;;;;16.59;94.64;101426.25;6299561;28;20054;-73
2022/06/29 05:46:13;;;;;;;6.68;2.05;;;;;;;16.61;94.89;101425.16;6299091;28;20524;-73
2022/06/29 05:49:15;;;;;;;2.00;1.50;;;;;;;16.66;95.62;101424.84;6299473;28;20049;-73
2022/06/29 05:52:18;;;;;;;1.90;1.30;;;;;;;16.72;94.57;101417.38;6298629;28;20488;-73
2022/06/29 05:55:19;;;;;;;1.27;1.10;;;;;;;16.77;94.22;101424.16;6298836;28;20055;-73
2022/06/29 05:58:22;;;;;;;1.85;1.30;;;;;;;16.83;94.78;101429.03;6298918;28;20416;-73
2022/06/29 06:01:23;;;;;;;3.60;1.38;;;;;;;16.87;94.47;101420.75;6296699;28;20051;-73
2022/06/29 06:04:25;;;;;;;2.00;1.20;;;;;;;16.96;94.40;101428.09;6273547;28;20500;-73
2022/06/29 06:07:28;;;;;;;2.58;1.60;;;;;;;17.03;93.92;101419.69;6282580;28;20055;-73
2022/06/29 06:10:29;;;;;;;2.10;1.30;;;;;;;17.10;94.09;101410.34;6298307;28;20045;-73
2022/06/29 06:13:31;;;;;;;1.75;1.35;;;;;;;17.20;93.61;101404.28;6298673;28;20408;-73
2022/06/29 06:16:32;;;;;;;1.52;1.20;;;;;;;17.31;92.11;101408.00;6298336;28;20055;-73
2022/06/29 06:19:33;;;;;;;2.22;1.70;;;;;;;17.43;91.48;101410.59;6298342;28;20051;-73
2022/06/29 06:22:36;;;;;;;1.73;1.40;;;;;;;17.54;91.80;101423.16;6298222;28;20059;-73
2022/06/29 06:25:37;;;;;;;2.35;1.80;;;;;;;17.61;90.18;101416.41;6298092;28;20048;-74
2022/06/29 06:28:39;;;;;;;4.88;1.48;;;;;;;17.74;89.40;101417.25;6298457;28;20055;-73
2022/06/29 06:31:41;;;;;;;1.30;1.10;;;;;;;17.82;88.95;101413.19;6297878;28;20428;-73
2022/06/29 06:34:42;;;;;;;1.40;1.30;;;;;;;17.90;89.11;101409.03;6297847;28;20392;-73
2022/06/29 06:37:45;;;;;;;1.58;1.30;;;;;;;18.00;87.16;101414.50;6296351;28;20052;-73
2022/06/29 06:44:05;;;;;;;2.10;1.63;;;;;;;18.31;86.53;101410.41;6296709;28;20095;-73
2022/06/29 06:47:07;;;;;;;2.05;1.60;;;;;;;18.53;85.39;101404.31;6298185;28;20060;-73
2022/06/29 06:50:09;;;;;;;3.75;1.58;;;;;;;18.68;84.59;101410.28;6297257;28;20052;-73
2022/06/29 06:53:12;;;;;;;2.03;1.23;;;;;;;18.80;82.04;101404.00;6297972;28;20496;-73
2022/06/29 06:56:14;;;;;;;2.08;1.50;;;;;;;18.94;81.50;101394.94;6294659;28;20056;-75
2022/06/29 06:59:16;;;;;;;4.57;1.30;;;;;;;19.01;81.50;101390.84;6297551;28;20049;-72
2022/06/29 07:02:17;;;;;;;2.33;1.65;;;;;;;19.11;80.33;101391.81;6297113;28;20059;-76
2022/06/29 07:05:19;;;;;;;2.80;1.58;;;;;;;19.18;78.50;101392.19;6297047;28;20048;-75
2022/06/29 07:08:22;;;;;;;2.00;1.48;;;;;;;19.21;78.77;101394.59;6297198;28;20531;-75
2022/06/29 07:11:23;;;;;;;1.20;1.10;;;;;;;19.20;78.64;101388.41;6296798;28;20045;-74
2022/06/29 07:14:24;;;;;;;2.20;1.73;;;;;;;19.17;81.01;101393.16;6296852;28;20052;-75
2022/06/29 07:17:26;;;;;;;1.52;1.23;;;;;;;19.21;80.93;101387.47;6297180;28;20071;-74
2022/06/29 07:20:28;;;;;;;3.35;1.45;;;;;;;19.23;81.06;101382.84;6296511;28;20044;-74
2022/06/29 07:23:31;;;;;;;1.58;1.30;;;;;;;19.21;82.32;101390.13;6296883;28;20044;-74
2022/06/29 07:26:32;;;;;;;2.13;1.45;;;;;;;19.21;82.59;101389.25;6282360;28;20436;-74
2022/06/29 07:29:33;;;;;;;1.90;1.30;;;;;;;19.22;83.04;101385.66;6271860;28;20049;-74
2022/06/29 07:32:35;;;;;;;6.15;1.63;;;;;;;19.30;82.15;101388.53;6271729;28;20440;-74
2022/06/29 07:35:36;;;;;;;3.53;1.63;;;;;;;19.38;82.12;101385.25;6271528;28;20045;-74
2022/06/29 07:38:39;;;;;;;2.10;1.60;;;;;;;19.47;81.69;101388.03;6271746;28;20053;-74
2022/06/29 07:41:41;;;;;;;2.90;1.17;;;;;;;19.55;81.40;101384.75;6271335;28;20060;-75
2022/06/29 07:44:42;;;;;;;3.17;1.75;;;;;;;19.71;80.49;101379.91;6271293;28;20136;-75
2022/06/29 07:47:44;;;;;;;2.10;1.60;;;;;;;19.88;78.23;101383.84;6271772;28;20060;-74
2022/06/29 07:50:46;;;;;;;1.75;1.63;;;;;;;20.04;76.71;101377.25;6271215;28;20132;-74
2022/06/29 07:53:48;;;;;;;1.35;1.25;;;;;;;20.16;77.61;101374.38;6271194;28;20052;-74
2022/06/29 07:56:50;;;;;;;2.25;1.60;;;;;;;20.25;77.46;101381.63;6272369;28;20045;-74
2022/06/29 07:59:51;;;;;;;1.90;1.70;;;;;;;20.35;77.38;101380.84;6271297;28;20056;-74
2022/06/29 08:02:52;;;;;;;3.03;1.67;;;;;;;20.45;75.98;101374.59;6271450;28;20049;-74
2022/06/29 08:05:54;;;;;;;2.78;1.50;;;;;;;20.58;74.21;101374.44;6271306;28;20501;-74
2022/06/29 08:08:56;;;;;;;2.60;1.60;;;;;;;20.64;74.38;101373.06;6271424;28;20060;-74
2022/06/29 08:11:57;;;;;;;2.30;1.67;;;;;;;20.79;73.27;101377.06;6270900;28;20412;-74
2022/06/29 08:14:59;;;;;;;2.83;1.60;;;;;;;20.95;71.54;101364.09;6271000;28;20049;-74
2022/06/29 08:18:00;;;;;;;1.60;1.50;;;;;;;21.07;72.50;101372.84;6280647;28;20051;-73
2022/06/29 08:21:03;;;;;;;4.93;1.55;;;;;;;21.20;71.04;101370.78;6277707;28;20404;-72
2022/06/29 08:24:06;;;;;;;1.95;1.52;;;;;;;21.29;70.82;101364.63;6295521;28;20262;-74
2022/06/29 08:27:07;;;;;;;1.77;1.52;;;;;;;21.30;71.78;101362.78;6292766;28;20119;-73
2022/06/29 08:30:10;;;;;;;3.38;1.80;;;;;;;21.28;72.12;101362.94;6287796;28;20037;-73
2022/06/29 08:33:11;;;;;;;1.63;1.40;;;;;;;21.43;71.23;101359.91;6294487;28;20048;-72
2022/06/29 08:36:13;;;;;;;2.92;1.55;;;;;;;21.53;69.79;101364.31;6289043;28;20419;-73
2022/06/29 08:39:16;;;;;;;4.22;1.48;;;;;;;21.65;69.95;101359.66;6293754;28;20052;-74
2022/06/29 08:42:22;;;;;;;2.95;1.77;;;;;;;21.68;69.86;101362.06;6294340;28;20423;-74
2022/06/29 08:45:23;;;;;;;2.28;1.80;;;;;;;21.75;71.46;101354.31;6295548;28;20652;-73
2022/06/29 08:48:25;;;;;;;3.45;1.70;;;;;;;21.88;71.75;101359.41;6295158;28;20048;-73
2022/06/29 08:51:30;;;;;;;3.42;1.80;;;;;;;21.96;70.86;101355.03;6294757;28;20044;-71
2022/06/29 08:54:36;;;;;;;2.92;1.80;;;;;;;22.10;70.50;101350.25;6294628;28;20515;-71
2022/06/29 08:57:38;;;;;;;3.53;1.60;;;;;;;22.18;69.99;101356.63;6295635;28;20063;-71
2022/06/29 09:00:40;;;;;;;2.58;1.70;;;;;;;22.22;68.99;101354.50;6293744;28;20492;-71
2022/06/29 09:03:42;;;;;;;4.22;1.88;;;;;;;22.26;69.24;101346.06;6295065;28;20045;-71
2022/06/29 09:06:43;;;;;;;2.25;1.80;;;;;;;22.34;68.22;101350.66;6298868;28;20044;-71
2022/06/29 09:10:00;;;;;;;5.20;1.85;;;;;;;22.44;67.76;101342.66;6299799;28;20056;-71
2022/06/29 09:13:05;;;;;;;1.88;1.67;;;;;;;22.57;67.47;101345.00;6300357;28;20059;-71
2022/06/29 09:16:10;;;;;;;2.47;1.60;;;;;;;22.61;67.83;101336.50;6299601;28;20515;-71
2022/06/29 09:19:11;;;;;;;4.63;1.88;;;;;;;22.62;67.62;101329.31;6299900;28;20068;-71
2022/06/29 09:22:13;;;;;;;2.85;1.60;;;;;;;22.66;67.17;101334.22;6299614;28;20507;-72
2022/06/29 09:25:26;;;;;;;2.50;1.80;;;;;;;22.66;67.97;101330.72;6292290;28;20045;-71
2022/06/29 09:28:31;;;;;;;2.30;1.60;;;;;;;22.72;65.79;101328.31;6275040;28;20416;-72
2022/06/29 09:31:33;;;;;;;2.00;1.83;;;;;;;22.84;66.55;101315.56;6274931;28;20101;-71
2022/06/29 09:34:35;;;;;;;3.47;2.15;;;;;;;22.96;65.02;101316.25;6274619;28;20052;-72
2022/06/29 09:37:37;;;;;;;1.85;1.65;;;;;;;23.18;63.55;101320.38;6274673;28;20052;-72
2022/06/29 09:40:58;;;;;;;2.33;1.55;;;;;;;23.33;59.49;101309.97;6274282;28;20075;-72
2022/06/29 09:43:59;;;;;;;3.58;2.13;;;;;;;23.37;59.93;101312.19;6274271;28;20053;-71
2022/06/29 09:47:04;;;;;;;2.75;1.42;;;;;;;23.45;57.88;101312.28;6274433;28;20447;-71
2022/06/29 09:50:10;;;;;;;1.42;1.25;;;;;;;23.71;57.11;101315.09;6274025;28;20067;-71
2022/06/29 09:53:12;;;;;;;2.30;1.23;;;;;;;23.91;54.98;101325.69;6274466;28;20052;-71
2022/06/29 09:56:20;;;;;;;2.13;1.70;;;;;;;24.09;54.75;101313.06;6277892;28;20053;-71
2022/06/29 10:02:34;;;;;;;1.83;1.48;;;;;;;24.22;55.52;101309.97;6294698;28;20401;-71
2022/06/29 10:02:45;;;;;;;1.85;1.35;;;;;;;24.38;54.47;101320.03;6292714;28;20052;-72
2022/06/29 10:06:05;;;;;;;2.25;1.50;;;;;;;24.50;55.07;101308.84;6293611;28;20110;-71
2022/06/29 10:09:06;;;;;;;2.50;1.48;;;;;;;24.57;54.84;101309.03;6298148;28;20049;-72
2022/06/29 10:15:40;;;;;;;3.05;1.50;;;;;;;24.83;52.74;101294.75;6297306;28;20504;-71
2022/06/29 10:19:04;;;;;;;2.10;1.23;;;;;;;24.87;52.07;101291.56;6320026;22;20138;-76
2022/06/29 10:22:05;;;;;;;1.40;1.10;;;;;;;24.99;51.02;101301.03;6226338;28;20061;-77
2022/06/29 10:25:09;;;;;;;1.95;1.15;;;;;;;25.01;51.20;101300.88;6227063;28;20054;-79
2022/06/29 10:28:16;;;;;;;1.60;1.50;;;;;;;25.12;50.06;101291.66;6222819;28;20050;-78
2022/06/29 10:31:17;;;;;;;1.60;1.27;;;;;;;25.12;50.58;101288.97;6212777;28;20148;-77
2022/06/29 10:34:41;;;;;;;2.92;1.05;;;;;;;25.21;49.52;101290.72;6223768;28;20057;-77
2022/06/29 10:37:50;;;;;;;2.30;1.08;;;;;;;25.27;46.28;101277.44;6226716;28;20494;-78
2022/06/29 10:41:07;;;;;;;1.23;1.13;;;;;;;25.37;45.91;101284.53;6224401;28;20319;-77
2022/06/29 10:44:09;;;;;;;1.08;0.90;;;;;;;25.41;46.96;101283.19;6214683;28;20052;-77
2022/06/29 10:47:21;;;;;;;1.85;1.00;;;;;;;25.52;45.64;101285.53;6212003;28;20058;-78
2022/06/29 10:50:25;;;;;;;1.50;1.33;;;;;;;25.54;45.17;101280.84;6211572;28;20042;-78
2022/06/29 10:53:26;;;;;;;2.42;1.00;;;;;;;25.58;45.35;101278.69;6203377;28;20054;-78
2022/06/29 10:56:28;;;;;;;1.13;1.02;;;;;;;25.53;47.61;101271.94;6196612;28;20490;-78
2022/06/29 10:59:34;;;;;;;2.17;1.27;;;;;;;25.53;48.17;101263.03;6205420;28;20061;-78
2022/06/29 11:02:36;;;;;;;1.60;1.30;;;;;;;25.42;49.70;101269.56;6198940;28;20043;-77
2022/06/29 11:12:18;;;;;;;1.40;1.30;;;;;;;25.73;48.55;101256.28;6161537;28;20054;-76
2022/06/29 11:18:43;;;;;;;2.35;1.30;;;;;;;26.40;45.66;101266.00;6199943;28;20081;-77
2022/06/29 11:22:06;;;;;;;1.30;1.05;;;;;;;26.66;44.13;101250.47;6202674;28;20054;-77
2022/06/29 11:25:08;;;;;;;2.55;1.17;;;;;;;26.69;44.52;101243.84;6193724;28;20062;-77
2022/06/29 11:28:10;;;;;;;1.20;1.02;;;;;;;26.96;43.61;101239.84;6201885;28;20421;-77
2022/06/29 11:31:13;;;;;;;1.20;1.10;;;;;;;27.20;42.73;101238.88;6202659;28;20069;-77
2022/06/29 11:34:15;;;;;;;4.10;1.40;;;;;;;27.49;43.57;101238.19;6203050;28;20050;-77
2022/06/29 11:37:17;;;;;;;1.30;1.20;;;;;;;27.73;43.53;101232.63;6203560;28;20561;-77
2022/06/29 11:40:19;;;;;;;2.17;1.25;;;;;;;28.01;41.68;101227.44;6203845;28;20051;-77
2022/06/29 11:43:22;;;;;;;2.70;1.10;;;;;;;28.19;41.75;101223.56;6203923;28;20706;-78
2022/06/29 11:46:27;;;;;;;1.38;1.13;;;;;;;28.43;40.84;101230.56;6202612;28;20061;-76
2022/06/29 11:49:39;;;;;;;1.10;1.00;;;;;;;28.58;40.75;101215.19;6202789;28;20426;-78
2022/06/29 11:52:41;;;;;;;2.22;1.27;;;;;;;28.62;40.27;101221.91;6202200;28;20050;-78
2022/06/29 11:55:44;;;;;;;1.27;1.00;;;;;;;28.76;39.88;101218.31;6200785;28;20054;-78
2022/06/29 11:58:49;;;;;;;1.20;1.10;;;;;;;28.41;40.09;101211.00;6202249;28;20050;-78
2022/06/29 12:01:54;;;;;;;1.25;1.15;;;;;;;28.05;41.10;101211.72;6201865;28;20046;-77
2022/06/29 12:04:59;;;;;;;4.60;1.20;;;;;;;28.59;40.27;101203.34;6201959;28;20069;-77
2022/06/29 12:08:01;;;;;;;1.60;1.30;;;;;;;29.06;38.81;101202.03;6202561;28;20054;-78
2022/06/29 12:11:02;;;;;;;0.93;0.82;;;;;;;29.36;38.77;101210.88;6203940;28;20049;-77
2022/06/29 12:14:03;;;;;;;1.90;1.38;;;;;;;29.51;38.27;101206.22;6203461;28;20057;-78
2022/06/29 12:17:09;;;;;;;1.13;1.02;;;;;;;29.60;38.02;101200.69;6202199;28;20391;-78
2022/06/29 12:20:12;;;;;;;2.72;1.10;;;;;;;29.87;38.76;101202.56;6200399;28;20416;-78
2022/06/29 12:23:13;;;;;;;1.45;1.17;;;;;;;30.05;38.22;101208.31;6201530;28;20057;-78
2022/06/29 12:26:15;;;;;;;1.63;1.00;;;;;;;30.13;38.03;101198.38;6191554;28;20080;-80
2022/06/29 12:29:16;;;;;;;1.10;1.00;;;;;;;30.16;35.38;101195.28;6196484;28;20103;-79
2022/06/29 12:32:19;;;;;;;0.75;0.75;;;;;;;30.14;36.34;101200.91;6198219;28;20442;-79
2022/06/29 12:35:21;;;;;;;1.02;1.00;;;;;;;29.90;35.78;101193.22;6198843;28;20054;-80
2022/06/29 12:38:22;;;;;;;0.60;0.60;;;;;;;29.71;35.37;101194.75;6198776;28;20429;-80
2022/06/29 12:41:23;;;;;;;0.90;0.90;;;;;;;30.00;35.43;101177.44;6201547;28;20049;-81
2022/06/29 12:44:26;;;;;;;1.17;0.93;;;;;;;30.09;35.69;101184.38;6203198;28;20079;-81
2022/06/29 12:47:28;;;;;;;0.80;0.80;;;;;;;30.35;36.19;101170.16;6203903;28;20077;-79
2022/06/29 12:50:30;;;;;;;1.08;0.90;;;;;;;30.47;37.48;101186.69;6203169;28;20050;-81
2022/06/29 12:53:31;;;;;;;1.10;0.98;;;;;;;30.47;34.87;101182.09;6203828;28;20046;-79
2022/06/29 12:56:32;;;;;;;2.65;1.02;;;;;;;30.60;35.38;101185.91;6200897;28;20137;-79
2022/06/29 12:59:34;;;;;;;1.08;0.68;;;;;;;30.65;33.82;101173.41;6203554;28;20042;-80
2022/06/29 13:02:37;;;;;;;3.08;0.88;;;;;;;30.65;33.34;101167.13;6203456;28;20047;-79
2022/06/29 13:05:38;;;;;;;0.95;0.80;;;;;;;30.61;34.18;101165.88;6203307;28;20054;-79
2022/06/29 13:08:40;;;;;;;1.05;0.88;;;;;;;30.72;32.97;101174.28;6203768;28;20494;-81
2022/06/29 13:11:41;;;;;;;1.02;0.90;;;;;;;30.72;33.33;101171.59;6203561;28;20046;-80
2022/06/29 13:14:43;;;;;;;2.20;1.13;;;;;;;30.76;33.48;101162.00;6203263;28;20421;-80
2022/06/29 13:17:46;;;;;;;1.40;0.80;;;;;;;30.73;33.79;101159.69;6203377;28;20050;-81
2022/06/29 13:20:47;;;;;;;0.93;0.82;;;;;;;30.74;34.60;101166.78;6201517;28;20050;-74
2022/06/29 13:23:50;;;;;;;1.27;0.98;;;;;;;30.87;34.15;101157.84;6201635;28;20128;-81
2022/06/29 13:26:51;;;;;;;1.50;0.80;;;;;;;30.99;34.28;101163.50;6203256;28;20055;-80
2022/06/29 13:29:53;;;;;;;0.73;0.73;;;;;;;31.07;34.14;101156.00;6203342;28;20054;-79
2022/06/29 13:32:55;;;;;;;1.30;1.05;;;;;;;30.93;34.29;101165.19;6203887;28;20502;-79
2022/06/29 13:35:57;;;;;;;1.42;1.10;;;;;;;30.93;33.97;101167.03;6203371;28;20054;-80
2022/06/29 13:38:58;;;;;;;1.25;0.82;;;;;;;30.93;33.72;101162.47;6203227;28;20510;-80
2022/06/29 13:42:00;;;;;;;1.05;0.95;;;;;;;30.87;33.46;101159.72;6203013;28;20046;-80
2022/06/29 13:45:01;;;;;;;0.82;0.80;;;;;;;30.95;35.24;101149.50;6203301;28;20133;-81
2022/06/29 13:48:04;;;;;;;1.25;0.90;;;;;;;30.98;34.66;101151.81;6203974;28;20053;-79
2022/06/29 13:51:06;;;;;;;1.38;0.80;;;;;;;31.04;35.17;101158.28;6202989;28;20499;-80
2022/06/29 13:54:07;;;;;;;1.77;0.90;;;;;;;31.07;34.30;101141.59;6203292;28;20072;-81
2022/06/29 13:57:08;;;;;;;1.52;1.13;;;;;;;31.18;34.09;101151.00;6200439;28;20054;-80
2022/06/29 14:00:12;;;;;;;1.15;0.90;;;;;;;31.15;33.22;101149.53;6192988;28;20077;-80
2022/06/29 14:03:14;;;;;;;1.52;0.85;;;;;;;31.17;33.36;101155.59;6182913;28;20089;-80
2022/06/29 14:06:16;;;;;;;1.25;1.08;;;;;;;31.04;34.54;101159.13;6203279;28;20050;-80
2022/06/29 14:09:17;;;;;;;0.95;0.80;;;;;;;31.16;34.13;101153.06;6203316;28;20505;-81
2022/06/29 14:12:19;;;;;;;0.80;0.70;;;;;;;31.08;33.85;101152.25;6202654;28;20061;-81
2022/06/29 14:15:20;;;;;;;0.82;0.70;;;;;;;31.03;33.94;101143.88;6202768;28;20093;-80
2022/06/29 14:18:24;;;;;;;1.80;1.00;;;;;;;30.99;34.00;101152.66;6203313;28;20425;-79
2022/06/29 14:21:25;;;;;;;0.70;0.63;;;;;;;30.92;33.22;101147.19;6202176;28;20054;-80
2022/06/29 14:24:27;;;;;;;1.58;0.85;;;;;;;30.82;33.68;101142.16;6202571;28;20050;-80
2022/06/29 14:27:29;;;;;;;1.30;0.93;;;;;;;30.76;33.87;101145.72;6199766;28;20051;-80
2022/06/29 14:30:30;;;;;;;3.08;0.90;;;;;;;30.73;33.43;101145.28;6189185;28;20065;-80
2022/06/29 14:33:33;;;;;;;0.85;0.82;;;;;;;30.68;35.17;101139.59;6199666;28;20054;-80
2022/06/29 14:36:35;;;;;;;1.20;0.90;;;;;;;30.66;35.16;101138.94;6200793;28;20053;-80
2022/06/29 14:39:36;;;;;;;1.70;0.95;;;;;;;30.67;35.15;101135.22;6200350;28;20154;-80
2022/06/29 14:42:37;;;;;;;1.83;0.93;;;;;;;30.54;35.53;101128.72;6198769;28;20047;-80